sensor_id;sensor_type;location;lat;lon;timestamp;P1;durP1;ratioP1;P2;durP2;ratioP2
52031;SDS011;38044;45.148;39.604;2022-08-11T00:00:06;38.03;;;22.63;;
52031;SDS011;38044;45.148;39.604;2022-08-11T00:02:35;41.72;;;23.75;;
52031;SDS011;38044;45.148;39.604;2022-08-11T00:05:04;45.58;;;25.02;;
52031;SDS011;38044;45.148;39.604;2022-08-11T00:10:20;47.65;;;24.00;;
52031;SDS011;38044;45.148;39.604;2022-08-11T00:12:52;44.10;;;23.98;;
52031;SDS011;38044;45.148;39.604;2022-08-11T00:15:22;50.05;;;24.90;;
52031;SDS011;38044;45.148;39.604;2022-08-11T00:17:49;46.55;;;24.38;;
52031;SDS011;38044;45.148;39.604;2022-08-11T00:20:22;39.85;;;23.85;;
52031;SDS011;38044;45.148;39.604;2022-08-11T00:22:58;45.15;;;24.55;;
52031;SDS011;38044;45.148;39.604;2022-08-11T00:25:29;42.70;;;23.98;;
52031;SDS011;38044;45.148;39.604;2022-08-11T00:27:56;40.38;;;24.40;;
52031;SDS011;38044;45.148;39.604;2022-08-11T00:30:21;45.65;;;25.10;;
52031;SDS011;38044;45.148;39.604;2022-08-11T00:32:54;41.42;;;24.48;;
52031;SDS011;38044;45.148;39.604;2022-08-11T00:35:26;43.97;;;24.25;;
52031;SDS011;38044;45.148;39.604;2022-08-11T00:37:55;39.83;;;24.27;;
52031;SDS011;38044;45.148;39.604;2022-08-11T00:40:25;41.92;;;25.27;;
52031;SDS011;38044;45.148;39.604;2022-08-11T00:43:00;42.38;;;25.00;;
52031;SDS011;38044;45.148;39.604;2022-08-11T00:45:42;45.28;;;24.50;;
52031;SDS011;38044;45.148;39.604;2022-08-11T00:51:12;42.38;;;23.65;;
52031;SDS011;38044;45.148;39.604;2022-08-11T01:02:17;45.70;;;26.55;;
52031;SDS011;38044;45.148;39.604;2022-08-11T01:10:47;45.67;;;27.02;;
52031;SDS011;38044;45.148;39.604;2022-08-11T01:16:48;50.25;;;28.38;;
52031;SDS011;38044;45.148;39.604;2022-08-11T01:31:09;48.65;;;27.38;;
52031;SDS011;38044;45.148;39.604;2022-08-11T01:34:07;52.00;;;27.55;;
52031;SDS011;38044;45.148;39.604;2022-08-11T01:45:33;51.67;;;29.88;;
52031;SDS011;38044;45.148;39.604;2022-08-11T01:56:34;52.13;;;30.10;;
52031;SDS011;38044;45.148;39.604;2022-08-11T01:59:34;51.97;;;29.00;;
52031;SDS011;38044;45.148;39.604;2022-08-11T02:11:17;53.30;;;30.05;;
52031;SDS011;38044;45.148;39.604;2022-08-11T02:22:59;59.42;;;30.65;;
52031;SDS011;38044;45.148;39.604;2022-08-11T02:28:21;51.10;;;28.65;;
52031;SDS011;38044;45.148;39.604;2022-08-11T02:34:15;47.78;;;28.83;;
52031;SDS011;38044;45.148;39.604;2022-08-11T02:37:02;51.53;;;30.55;;
52031;SDS011;38044;45.148;39.604;2022-08-11T02:39:46;52.22;;;30.25;;
52031;SDS011;38044;45.148;39.604;2022-08-11T02:42:37;50.97;;;30.33;;
52031;SDS011;38044;45.148;39.604;2022-08-11T02:51:38;55.28;;;29.90;;
52031;SDS011;38044;45.148;39.604;2022-08-11T03:00:08;53.72;;;29.27;;
52031;SDS011;38044;45.148;39.604;2022-08-11T03:14:34;48.35;;;29.10;;
52031;SDS011;38044;45.148;39.604;2022-08-11T03:25:38;52.33;;;31.75;;
52031;SDS011;38044;45.148;39.604;2022-08-11T03:30:47;44.70;;;28.15;;
52031;SDS011;38044;45.148;39.604;2022-08-11T03:33:25;48.22;;;30.02;;
52031;SDS011;38044;45.148;39.604;2022-08-11T03:36:32;53.50;;;29.70;;
52031;SDS011;38044;45.148;39.604;2022-08-11T04:16:23;50.55;;;30.08;;
52031;SDS011;38044;45.148;39.604;2022-08-11T04:22:21;46.10;;;29.15;;
52031;SDS011;38044;45.148;39.604;2022-08-11T04:25:19;48.35;;;29.23;;
52031;SDS011;38044;45.148;39.604;2022-08-11T04:30:52;50.55;;;28.65;;
52031;SDS011;38044;45.148;39.604;2022-08-11T04:58:23;45.20;;;28.35;;
52031;SDS011;38044;45.148;39.604;2022-08-11T05:16:17;52.25;;;29.05;;
52031;SDS011;38044;45.148;39.604;2022-08-11T05:19:07;40.08;;;27.80;;
52031;SDS011;38044;45.148;39.604;2022-08-11T05:22:02;46.20;;;29.13;;
52031;SDS011;38044;45.148;39.604;2022-08-11T05:30:46;46.50;;;29.40;;
52031;SDS011;38044;45.148;39.604;2022-08-11T05:33:36;39.35;;;28.02;;
52031;SDS011;38044;45.148;39.604;2022-08-11T05:36:36;45.88;;;29.00;;
52031;SDS011;38044;45.148;39.604;2022-08-11T05:39:12;41.97;;;27.55;;
52031;SDS011;38044;45.148;39.604;2022-08-11T05:41:59;44.78;;;29.88;;
52031;SDS011;38044;45.148;39.604;2022-08-11T05:44:47;39.78;;;27.88;;
52031;SDS011;38044;45.148;39.604;2022-08-11T05:47:33;42.97;;;29.13;;
52031;SDS011;38044;45.148;39.604;2022-08-11T05:50:20;40.75;;;28.17;;
52031;SDS011;38044;45.148;39.604;2022-08-11T05:53:09;42.22;;;27.40;;
52031;SDS011;38044;45.148;39.604;2022-08-11T05:55:58;36.47;;;25.77;;
52031;SDS011;38044;45.148;39.604;2022-08-11T05:58:51;44.08;;;27.55;;
52031;SDS011;38044;45.148;39.604;2022-08-11T06:01:23;47.58;;;29.20;;
52031;SDS011;38044;45.148;39.604;2022-08-11T06:03:51;44.33;;;28.30;;
52031;SDS011;38044;45.148;39.604;2022-08-11T06:06:55;40.88;;;27.85;;
52031;SDS011;38044;45.148;39.604;2022-08-11T06:09:24;57.28;;;30.42;;
52031;SDS011;38044;45.148;39.604;2022-08-11T06:11:57;42.97;;;28.15;;
52031;SDS011;38044;45.148;39.604;2022-08-11T06:14:27;46.65;;;29.05;;
52031;SDS011;38044;45.148;39.604;2022-08-11T06:16:55;42.35;;;28.73;;
52031;SDS011;38044;45.148;39.604;2022-08-11T06:19:30;42.63;;;28.23;;
52031;SDS011;38044;45.148;39.604;2022-08-11T06:21:58;43.55;;;27.83;;
52031;SDS011;38044;45.148;39.604;2022-08-11T06:24:26;49.17;;;28.23;;
52031;SDS011;38044;45.148;39.604;2022-08-11T06:26:53;62.95;;;29.02;;
52031;SDS011;38044;45.148;39.604;2022-08-11T06:29:21;43.80;;;27.80;;
52031;SDS011;38044;45.148;39.604;2022-08-11T06:31:50;39.40;;;27.45;;
52031;SDS011;38044;45.148;39.604;2022-08-11T06:34:37;46.00;;;27.58;;
52031;SDS011;38044;45.148;39.604;2022-08-11T06:43:30;39.58;;;28.67;;
52031;SDS011;38044;45.148;39.604;2022-08-11T06:47:04;41.75;;;28.42;;
52031;SDS011;38044;45.148;39.604;2022-08-11T06:49:16;41.17;;;28.00;;
52031;SDS011;38044;45.148;39.604;2022-08-11T06:52:07;45.92;;;29.10;;
52031;SDS011;38044;45.148;39.604;2022-08-11T06:54:42;41.45;;;28.52;;
52031;SDS011;38044;45.148;39.604;2022-08-11T06:57:16;41.60;;;28.85;;
52031;SDS011;38044;45.148;39.604;2022-08-11T07:00:02;39.88;;;28.00;;
52031;SDS011;38044;45.148;39.604;2022-08-11T07:02:51;40.80;;;28.10;;
52031;SDS011;38044;45.148;39.604;2022-08-11T07:05:55;35.00;;;26.90;;
52031;SDS011;38044;45.148;39.604;2022-08-11T07:14:22;36.33;;;26.20;;
52031;SDS011;38044;45.148;39.604;2022-08-11T07:17:18;38.65;;;26.67;;
52031;SDS011;38044;45.148;39.604;2022-08-11T07:19:49;38.90;;;28.45;;
52031;SDS011;38044;45.148;39.604;2022-08-11T07:22:36;36.83;;;27.20;;
52031;SDS011;38044;45.148;39.604;2022-08-11T07:25:22;41.55;;;27.60;;
52031;SDS011;38044;45.148;39.604;2022-08-11T07:28:11;45.95;;;28.52;;
52031;SDS011;38044;45.148;39.604;2022-08-11T07:31:06;38.92;;;27.10;;
52031;SDS011;38044;45.148;39.604;2022-08-11T07:33:40;40.58;;;27.17;;
52031;SDS011;38044;45.148;39.604;2022-08-11T07:36:15;40.20;;;27.35;;
52031;SDS011;38044;45.148;39.604;2022-08-11T07:38:51;37.75;;;27.48;;
52031;SDS011;38044;45.148;39.604;2022-08-11T07:41:23;43.03;;;26.95;;
52031;SDS011;38044;45.148;39.604;2022-08-11T07:43:50;41.83;;;27.92;;
52031;SDS011;38044;45.148;39.604;2022-08-11T07:46:34;40.90;;;28.42;;
52031;SDS011;38044;45.148;39.604;2022-08-11T07:49:23;41.05;;;27.25;;
52031;SDS011;38044;45.148;39.604;2022-08-11T07:52:07;37.90;;;27.30;;
52031;SDS011;38044;45.148;39.604;2022-08-11T07:54:52;37.25;;;27.48;;
52031;SDS011;38044;45.148;39.604;2022-08-11T07:57:20;33.55;;;26.15;;
52031;SDS011;38044;45.148;39.604;2022-08-11T08:00:06;37.25;;;26.17;;
52031;SDS011;38044;45.148;39.604;2022-08-11T08:02:51;36.88;;;26.75;;
52031;SDS011;38044;45.148;39.604;2022-08-11T08:05:36;38.35;;;26.88;;
52031;SDS011;38044;45.148;39.604;2022-08-11T08:08:21;37.42;;;26.80;;
52031;SDS011;38044;45.148;39.604;2022-08-11T08:11:06;31.95;;;25.05;;
52031;SDS011;38044;45.148;39.604;2022-08-11T08:13:52;34.42;;;25.73;;
52031;SDS011;38044;45.148;39.604;2022-08-11T08:16:37;34.35;;;26.50;;
52031;SDS011;38044;45.148;39.604;2022-08-11T08:19:22;37.97;;;25.58;;
52031;SDS011;38044;45.148;39.604;2022-08-11T08:21:48;36.15;;;26.02;;
52031;SDS011;38044;45.148;39.604;2022-08-11T08:24:16;39.30;;;25.17;;
52031;SDS011;38044;45.148;39.604;2022-08-11T08:26:45;36.25;;;26.58;;
52031;SDS011;38044;45.148;39.604;2022-08-11T08:29:30;37.38;;;26.15;;
52031;SDS011;38044;45.148;39.604;2022-08-11T08:32:16;49.13;;;28.35;;
52031;SDS011;38044;45.148;39.604;2022-08-11T08:34:44;38.70;;;28.13;;
52031;SDS011;38044;45.148;39.604;2022-08-11T08:37:10;46.15;;;30.48;;
52031;SDS011;38044;45.148;39.604;2022-08-11T08:39:37;44.05;;;31.45;;
52031;SDS011;38044;45.148;39.604;2022-08-11T08:42:10;48.10;;;31.92;;
52031;SDS011;38044;45.148;39.604;2022-08-11T08:44:39;91.47;;;33.42;;
52031;SDS011;38044;45.148;39.604;2022-08-11T08:47:09;51.22;;;30.15;;
52031;SDS011;38044;45.148;39.604;2022-08-11T08:49:40;48.20;;;31.13;;
52031;SDS011;38044;45.148;39.604;2022-08-11T08:52:13;48.78;;;32.08;;
52031;SDS011;38044;45.148;39.604;2022-08-11T08:54:43;41.72;;;28.98;;
52031;SDS011;38044;45.148;39.604;2022-08-11T08:57:10;34.30;;;25.45;;
52031;SDS011;38044;45.148;39.604;2022-08-11T08:59:43;33.25;;;25.25;;
52031;SDS011;38044;45.148;39.604;2022-08-11T09:02:12;38.38;;;24.58;;
52031;SDS011;38044;45.148;39.604;2022-08-11T09:04:39;38.40;;;24.48;;
52031;SDS011;38044;45.148;39.604;2022-08-11T09:07:11;37.53;;;25.23;;
52031;SDS011;38044;45.148;39.604;2022-08-11T09:09:46;47.42;;;25.77;;
52031;SDS011;38044;45.148;39.604;2022-08-11T09:12:14;32.75;;;24.48;;
52031;SDS011;38044;45.148;39.604;2022-08-11T09:14:45;34.28;;;24.45;;
52031;SDS011;38044;45.148;39.604;2022-08-11T09:17:25;36.08;;;25.10;;
52031;SDS011;38044;45.148;39.604;2022-08-11T09:19:54;38.65;;;25.95;;
52031;SDS011;38044;45.148;39.604;2022-08-11T09:22:33;38.40;;;24.90;;
52031;SDS011;38044;45.148;39.604;2022-08-11T09:25:21;42.70;;;27.00;;
52031;SDS011;38044;45.148;39.604;2022-08-11T09:28:12;39.05;;;25.52;;
52031;SDS011;38044;45.148;39.604;2022-08-11T09:30:41;36.95;;;25.30;;
52031;SDS011;38044;45.148;39.604;2022-08-11T09:33:11;39.40;;;26.08;;
52031;SDS011;38044;45.148;39.604;2022-08-11T09:35:42;40.15;;;25.75;;
52031;SDS011;38044;45.148;39.604;2022-08-11T09:38:11;34.65;;;25.65;;
52031;SDS011;38044;45.148;39.604;2022-08-11T09:40:58;41.53;;;25.27;;
52031;SDS011;38044;45.148;39.604;2022-08-11T09:43:24;36.75;;;25.65;;
52031;SDS011;38044;45.148;39.604;2022-08-11T09:46:11;48.45;;;25.65;;
52031;SDS011;38044;45.148;39.604;2022-08-11T09:48:38;37.25;;;24.40;;
52031;SDS011;38044;45.148;39.604;2022-08-11T09:51:06;34.92;;;24.95;;
52031;SDS011;38044;45.148;39.604;2022-08-11T09:53:35;38.20;;;25.80;;
52031;SDS011;38044;45.148;39.604;2022-08-11T09:56:05;34.67;;;25.02;;
52031;SDS011;38044;45.148;39.604;2022-08-11T09:58:52;43.05;;;25.25;;
52031;SDS011;38044;45.148;39.604;2022-08-11T10:01:20;35.00;;;24.00;;
52031;SDS011;38044;45.148;39.604;2022-08-11T10:03:57;40.28;;;25.42;;
52031;SDS011;38044;45.148;39.604;2022-08-11T10:06:33;38.10;;;24.88;;
52031;SDS011;38044;45.148;39.604;2022-08-11T10:09:20;38.72;;;25.17;;
52031;SDS011;38044;45.148;39.604;2022-08-11T10:11:48;33.70;;;23.80;;
52031;SDS011;38044;45.148;39.604;2022-08-11T10:14:22;34.42;;;23.95;;
52031;SDS011;38044;45.148;39.604;2022-08-11T10:17:08;36.80;;;25.00;;
52031;SDS011;38044;45.148;39.604;2022-08-11T10:19:35;34.70;;;24.98;;
52031;SDS011;38044;45.148;39.604;2022-08-11T10:22:03;37.10;;;25.63;;
52031;SDS011;38044;45.148;39.604;2022-08-11T10:24:52;34.22;;;24.73;;
52031;SDS011;38044;45.148;39.604;2022-08-11T10:27:38;38.00;;;26.05;;
52031;SDS011;38044;45.148;39.604;2022-08-11T10:30:08;38.40;;;25.55;;
52031;SDS011;38044;45.148;39.604;2022-08-11T10:32:55;33.30;;;25.88;;
52031;SDS011;38044;45.148;39.604;2022-08-11T10:35:41;35.72;;;24.45;;
52031;SDS011;38044;45.148;39.604;2022-08-11T10:38:10;37.10;;;25.52;;
52031;SDS011;38044;45.148;39.604;2022-08-11T10:40:40;37.65;;;25.27;;
52031;SDS011;38044;45.148;39.604;2022-08-11T10:43:31;33.67;;;24.83;;
52031;SDS011;38044;45.148;39.604;2022-08-11T10:45:57;35.22;;;25.55;;
52031;SDS011;38044;45.148;39.604;2022-08-11T10:48:47;34.00;;;24.83;;
52031;SDS011;38044;45.148;39.604;2022-08-11T10:51:13;37.58;;;25.17;;
52031;SDS011;38044;45.148;39.604;2022-08-11T10:53:46;33.78;;;25.50;;
52031;SDS011;38044;45.148;39.604;2022-08-11T10:56:36;39.25;;;24.73;;
52031;SDS011;38044;45.148;39.604;2022-08-11T10:59:23;34.15;;;24.02;;
52031;SDS011;38044;45.148;39.604;2022-08-11T11:01:52;42.53;;;29.27;;
52031;SDS011;38044;45.148;39.604;2022-08-11T11:04:23;36.50;;;27.70;;
52031;SDS011;38044;45.148;39.604;2022-08-11T11:07:07;39.25;;;28.73;;
52031;SDS011;38044;45.148;39.604;2022-08-11T11:09:49;38.40;;;29.48;;
52031;SDS011;38044;45.148;39.604;2022-08-11T11:12:28;37.63;;;29.25;;
52031;SDS011;38044;45.148;39.604;2022-08-11T11:15:18;42.28;;;29.63;;
52031;SDS011;38044;45.148;39.604;2022-08-11T11:20:56;41.72;;;27.13;;
52031;SDS011;38044;45.148;39.604;2022-08-11T11:37:16;37.80;;;26.52;;
52031;SDS011;38044;45.148;39.604;2022-08-11T11:39:42;35.70;;;27.17;;
52031;SDS011;38044;45.148;39.604;2022-08-11T11:42:09;34.40;;;26.75;;
52031;SDS011;38044;45.148;39.604;2022-08-11T11:44:36;34.00;;;25.08;;
52031;SDS011;38044;45.148;39.604;2022-08-11T11:47:03;34.65;;;26.00;;
52031;SDS011;38044;45.148;39.604;2022-08-11T11:49:31;34.40;;;24.58;;
52031;SDS011;38044;45.148;39.604;2022-08-11T11:52:03;34.72;;;24.58;;
52031;SDS011;38044;45.148;39.604;2022-08-11T11:54:32;36.20;;;25.20;;
52031;SDS011;38044;45.148;39.604;2022-08-11T11:57:02;43.22;;;25.95;;
52031;SDS011;38044;45.148;39.604;2022-08-11T11:59:48;37.55;;;26.95;;
52031;SDS011;38044;45.148;39.604;2022-08-11T12:02:34;36.45;;;25.33;;
52031;SDS011;38044;45.148;39.604;2022-08-11T12:05:01;38.55;;;26.17;;
52031;SDS011;38044;45.148;39.604;2022-08-11T12:07:28;37.50;;;26.88;;
52031;SDS011;38044;45.148;39.604;2022-08-11T12:10:14;36.55;;;26.70;;
52031;SDS011;38044;45.148;39.604;2022-08-11T12:12:42;35.58;;;25.90;;
52031;SDS011;38044;45.148;39.604;2022-08-11T12:15:27;37.67;;;25.95;;
52031;SDS011;38044;45.148;39.604;2022-08-11T12:17:53;38.33;;;25.48;;
52031;SDS011;38044;45.148;39.604;2022-08-11T12:20:20;34.05;;;25.00;;
52031;SDS011;38044;45.148;39.604;2022-08-11T12:22:47;39.05;;;25.30;;
52031;SDS011;38044;45.148;39.604;2022-08-11T12:25:31;35.58;;;24.75;;
52031;SDS011;38044;45.148;39.604;2022-08-11T12:28:18;58.60;;;26.10;;
52031;SDS011;38044;45.148;39.604;2022-08-11T12:30:47;35.25;;;25.45;;
52031;SDS011;38044;45.148;39.604;2022-08-11T12:33:16;34.25;;;25.48;;
52031;SDS011;38044;45.148;39.604;2022-08-11T12:35:59;46.50;;;29.50;;
52031;SDS011;38044;45.148;39.604;2022-08-11T12:38:26;39.28;;;25.55;;
52031;SDS011;38044;45.148;39.604;2022-08-11T12:40:52;38.50;;;28.83;;
52031;SDS011;38044;45.148;39.604;2022-08-11T12:43:37;46.75;;;29.13;;
52031;SDS011;38044;45.148;39.604;2022-08-11T12:46:34;47.90;;;30.92;;
52031;SDS011;38044;45.148;39.604;2022-08-11T12:49:07;42.65;;;27.60;;
52031;SDS011;38044;45.148;39.604;2022-08-11T12:51:55;34.67;;;25.88;;
52031;SDS011;38044;45.148;39.604;2022-08-11T12:57:05;40.70;;;27.65;;
52031;SDS011;38044;45.148;39.604;2022-08-11T12:59:52;55.22;;;33.65;;
52031;SDS011;38044;45.148;39.604;2022-08-11T13:02:39;51.33;;;33.15;;
52031;SDS011;38044;45.148;39.604;2022-08-11T13:05:24;42.78;;;27.92;;
52031;SDS011;38044;45.148;39.604;2022-08-11T13:07:50;43.67;;;27.13;;
52031;SDS011;38044;45.148;39.604;2022-08-11T13:10:18;36.63;;;25.42;;
52031;SDS011;38044;45.148;39.604;2022-08-11T13:13:06;41.28;;;25.95;;
52031;SDS011;38044;45.148;39.604;2022-08-11T13:15:33;39.17;;;25.58;;
52031;SDS011;38044;45.148;39.604;2022-08-11T13:18:02;35.30;;;24.63;;
52031;SDS011;38044;45.148;39.604;2022-08-11T13:20:32;41.03;;;24.17;;
52031;SDS011;38044;45.148;39.604;2022-08-11T13:23:00;37.88;;;25.45;;
52031;SDS011;38044;45.148;39.604;2022-08-11T13:25:29;41.03;;;26.52;;
52031;SDS011;38044;45.148;39.604;2022-08-11T13:27:57;45.20;;;30.33;;
52031;SDS011;38044;45.148;39.604;2022-08-11T13:30:26;43.22;;;27.50;;
52031;SDS011;38044;45.148;39.604;2022-08-11T13:33:13;37.42;;;26.17;;
52031;SDS011;38044;45.148;39.604;2022-08-11T13:35:43;36.28;;;26.92;;
52031;SDS011;38044;45.148;39.604;2022-08-11T13:38:10;77.38;;;27.92;;
52031;SDS011;38044;45.148;39.604;2022-08-11T13:40:37;51.05;;;26.60;;
52031;SDS011;38044;45.148;39.604;2022-08-11T13:43:05;38.30;;;24.92;;
52031;SDS011;38044;45.148;39.604;2022-08-11T13:45:31;38.85;;;25.52;;
52031;SDS011;38044;45.148;39.604;2022-08-11T13:47:59;55.80;;;31.85;;
52031;SDS011;38044;45.148;39.604;2022-08-11T13:50:27;41.13;;;29.15;;
52031;SDS011;38044;45.148;39.604;2022-08-11T13:53:14;42.05;;;27.25;;
52031;SDS011;38044;45.148;39.604;2022-08-11T13:55:41;41.90;;;26.55;;
52031;SDS011;38044;45.148;39.604;2022-08-11T13:58:11;34.08;;;26.08;;
52031;SDS011;38044;45.148;39.604;2022-08-11T14:00:37;40.45;;;25.48;;
52031;SDS011;38044;45.148;39.604;2022-08-11T14:03:08;40.17;;;25.48;;
52031;SDS011;38044;45.148;39.604;2022-08-11T14:05:38;33.67;;;25.63;;
52031;SDS011;38044;45.148;39.604;2022-08-11T14:08:08;41.55;;;27.45;;
52031;SDS011;38044;45.148;39.604;2022-08-11T14:10:37;37.67;;;26.80;;
52031;SDS011;38044;45.148;39.604;2022-08-11T14:13:08;32.20;;;25.90;;
52031;SDS011;38044;45.148;39.604;2022-08-11T14:15:55;273.77;;;158.00;;
52031;SDS011;38044;45.148;39.604;2022-08-11T14:18:30;145.02;;;87.95;;
52031;SDS011;38044;45.148;39.604;2022-08-11T14:21:00;64.40;;;44.30;;
52031;SDS011;38044;45.148;39.604;2022-08-11T14:23:48;59.17;;;40.00;;
52031;SDS011;38044;45.148;39.604;2022-08-11T14:26:19;44.03;;;32.03;;
52031;SDS011;38044;45.148;39.604;2022-08-11T14:31:22;68.22;;;45.65;;
52031;SDS011;38044;45.148;39.604;2022-08-11T14:33:50;57.63;;;40.50;;
52031;SDS011;38044;45.148;39.604;2022-08-11T14:36:25;58.78;;;37.45;;
52031;SDS011;38044;45.148;39.604;2022-08-11T14:38:52;56.20;;;36.95;;
52031;SDS011;38044;45.148;39.604;2022-08-11T14:41:20;75.15;;;49.08;;
52031;SDS011;38044;45.148;39.604;2022-08-11T14:44:06;96.95;;;65.88;;
52031;SDS011;38044;45.148;39.604;2022-08-11T14:46:51;408.27;;;262.73;;
52031;SDS011;38044;45.148;39.604;2022-08-11T14:49:30;233.80;;;145.98;;
52031;SDS011;38044;45.148;39.604;2022-08-11T14:52:00;327.42;;;206.45;;
52031;SDS011;38044;45.148;39.604;2022-08-11T14:54:32;181.55;;;112.97;;
52031;SDS011;38044;45.148;39.604;2022-08-11T14:57:17;81.93;;;51.63;;
52031;SDS011;38044;45.148;39.604;2022-08-11T14:59:46;74.05;;;47.65;;
52031;SDS011;38044;45.148;39.604;2022-08-11T15:02:14;86.97;;;54.05;;
52031;SDS011;38044;45.148;39.604;2022-08-11T15:05:01;70.75;;;43.50;;
52031;SDS011;38044;45.148;39.604;2022-08-11T15:07:32;115.60;;;72.95;;
52031;SDS011;38044;45.148;39.604;2022-08-11T15:10:00;224.63;;;123.63;;
52031;SDS011;38044;45.148;39.604;2022-08-11T15:12:29;151.13;;;84.65;;
52031;SDS011;38044;45.148;39.604;2022-08-11T15:14:56;142.40;;;78.60;;
52031;SDS011;38044;45.148;39.604;2022-08-11T15:17:41;94.57;;;50.92;;
52031;SDS011;38044;45.148;39.604;2022-08-11T15:20:09;89.85;;;50.75;;
52031;SDS011;38044;45.148;39.604;2022-08-11T15:22:56;75.65;;;44.30;;
52031;SDS011;38044;45.148;39.604;2022-08-11T15:25:42;84.82;;;46.97;;
52031;SDS011;38044;45.148;39.604;2022-08-11T15:28:10;110.32;;;54.45;;
52031;SDS011;38044;45.148;39.604;2022-08-11T15:30:58;98.78;;;50.92;;
52031;SDS011;38044;45.148;39.604;2022-08-11T15:33:45;92.40;;;49.83;;
52031;SDS011;38044;45.148;39.604;2022-08-11T15:36:33;91.47;;;49.28;;
52031;SDS011;38044;45.148;39.604;2022-08-11T15:39:20;93.32;;;51.90;;
52031;SDS011;38044;45.148;39.604;2022-08-11T15:44:58;58.45;;;36.15;;
52031;SDS011;38044;45.148;39.604;2022-08-11T15:47:58;56.00;;;32.22;;
52031;SDS011;38044;45.148;39.604;2022-08-11T15:50:32;46.42;;;31.02;;
52031;SDS011;38044;45.148;39.604;2022-08-11T15:53:17;48.78;;;30.17;;
52031;SDS011;38044;45.148;39.604;2022-08-11T15:55:54;48.35;;;31.95;;
52031;SDS011;38044;45.148;39.604;2022-08-11T15:58:22;48.25;;;31.42;;
52031;SDS011;38044;45.148;39.604;2022-08-11T16:01:11;46.90;;;31.05;;
52031;SDS011;38044;45.148;39.604;2022-08-11T16:04:00;49.13;;;30.98;;
52031;SDS011;38044;45.148;39.604;2022-08-11T16:06:41;47.78;;;31.77;;
52031;SDS011;38044;45.148;39.604;2022-08-11T16:09:12;51.42;;;32.00;;
52031;SDS011;38044;45.148;39.604;2022-08-11T16:11:40;59.90;;;34.08;;
52031;SDS011;38044;45.148;39.604;2022-08-11T16:14:08;54.05;;;33.13;;
52031;SDS011;38044;45.148;39.604;2022-08-11T16:16:55;59.10;;;33.80;;
52031;SDS011;38044;45.148;39.604;2022-08-11T16:19:22;123.25;;;40.10;;
52031;SDS011;38044;45.148;39.604;2022-08-11T16:21:52;69.82;;;39.28;;
52031;SDS011;38044;45.148;39.604;2022-08-11T16:24:20;87.88;;;48.72;;
52031;SDS011;38044;45.148;39.604;2022-08-11T16:26:49;91.47;;;51.20;;
52031;SDS011;38044;45.148;39.604;2022-08-11T16:29:18;83.90;;;49.58;;
52031;SDS011;38044;45.148;39.604;2022-08-11T16:31:45;89.40;;;51.88;;
52031;SDS011;38044;45.148;39.604;2022-08-11T16:34:32;82.72;;;50.35;;
52031;SDS011;38044;45.148;39.604;2022-08-11T16:37:28;137.10;;;81.97;;
52031;SDS011;38044;45.148;39.604;2022-08-11T16:40:16;78.78;;;48.90;;
52031;SDS011;38044;45.148;39.604;2022-08-11T16:42:44;69.72;;;45.38;;
52031;SDS011;38044;45.148;39.604;2022-08-11T16:45:30;63.15;;;40.47;;
52031;SDS011;38044;45.148;39.604;2022-08-11T16:48:16;69.22;;;42.50;;
52031;SDS011;38044;45.148;39.604;2022-08-11T16:50:43;59.35;;;40.58;;
52031;SDS011;38044;45.148;39.604;2022-08-11T16:53:10;66.05;;;38.83;;
52031;SDS011;38044;45.148;39.604;2022-08-11T16:55:36;51.88;;;36.47;;
52031;SDS011;38044;45.148;39.604;2022-08-11T16:58:03;57.22;;;36.67;;
52031;SDS011;38044;45.148;39.604;2022-08-11T17:00:58;54.25;;;35.28;;
52031;SDS011;38044;45.148;39.604;2022-08-11T17:03:27;60.70;;;39.67;;
52031;SDS011;38044;45.148;39.604;2022-08-11T17:06:13;72.68;;;42.42;;
52031;SDS011;38044;45.148;39.604;2022-08-11T17:08:58;67.97;;;44.60;;
52031;SDS011;38044;45.148;39.604;2022-08-11T17:11:50;69.95;;;42.38;;
52031;SDS011;38044;45.148;39.604;2022-08-11T17:17:14;66.35;;;38.28;;
52031;SDS011;38044;45.148;39.604;2022-08-11T17:19:49;46.88;;;31.73;;
52031;SDS011;38044;45.148;39.604;2022-08-11T17:22:19;57.05;;;37.28;;
52031;SDS011;38044;45.148;39.604;2022-08-11T17:25:05;50.47;;;32.20;;
52031;SDS011;38044;45.148;39.604;2022-08-11T17:27:33;45.42;;;29.60;;
52031;SDS011;38044;45.148;39.604;2022-08-11T17:30:03;45.00;;;28.50;;
52031;SDS011;38044;45.148;39.604;2022-08-11T17:32:35;42.92;;;28.58;;
52031;SDS011;38044;45.148;39.604;2022-08-11T17:35:39;46.30;;;29.92;;
52031;SDS011;38044;45.148;39.604;2022-08-11T17:38:10;47.58;;;30.35;;
52031;SDS011;38044;45.148;39.604;2022-08-11T17:40:51;51.75;;;32.17;;
52031;SDS011;38044;45.148;39.604;2022-08-11T17:43:37;44.72;;;30.33;;
52031;SDS011;38044;45.148;39.604;2022-08-11T17:46:22;44.92;;;30.67;;
52031;SDS011;38044;45.148;39.604;2022-08-11T17:49:08;52.75;;;33.60;;
52031;SDS011;38044;45.148;39.604;2022-08-11T17:51:37;52.13;;;34.22;;
52031;SDS011;38044;45.148;39.604;2022-08-11T17:54:24;52.17;;;33.63;;
52031;SDS011;38044;45.148;39.604;2022-08-11T17:57:09;62.55;;;36.63;;
52031;SDS011;38044;45.148;39.604;2022-08-11T17:59:54;64.35;;;35.83;;
52031;SDS011;38044;45.148;39.604;2022-08-11T18:02:29;57.13;;;37.08;;
52031;SDS011;38044;45.148;39.604;2022-08-11T18:05:23;62.22;;;39.40;;
52031;SDS011;38044;45.148;39.604;2022-08-11T18:07:52;65.43;;;40.13;;
52031;SDS011;38044;45.148;39.604;2022-08-11T18:10:39;68.78;;;41.58;;
52031;SDS011;38044;45.148;39.604;2022-08-11T18:13:26;61.85;;;38.13;;
52031;SDS011;38044;45.148;39.604;2022-08-11T18:16:13;65.82;;;40.28;;
52031;SDS011;38044;45.148;39.604;2022-08-11T18:18:58;63.30;;;38.53;;
52031;SDS011;38044;45.148;39.604;2022-08-11T18:21:44;67.90;;;38.60;;
52031;SDS011;38044;45.148;39.604;2022-08-11T18:24:36;63.22;;;38.88;;
52031;SDS011;38044;45.148;39.604;2022-08-11T18:27:28;58.67;;;37.70;;
52031;SDS011;38044;45.148;39.604;2022-08-11T18:30:15;55.53;;;37.30;;
52031;SDS011;38044;45.148;39.604;2022-08-11T18:33:00;61.78;;;35.38;;
52031;SDS011;38044;45.148;39.604;2022-08-11T18:35:48;56.03;;;35.55;;
52031;SDS011;38044;45.148;39.604;2022-08-11T18:38:37;57.55;;;36.42;;
52031;SDS011;38044;45.148;39.604;2022-08-11T18:41:24;56.95;;;35.63;;
52031;SDS011;38044;45.148;39.604;2022-08-11T18:44:27;58.35;;;37.90;;
52031;SDS011;38044;45.148;39.604;2022-08-11T18:47:15;55.28;;;38.13;;
52031;SDS011;38044;45.148;39.604;2022-08-11T18:50:02;55.15;;;37.50;;
52031;SDS011;38044;45.148;39.604;2022-08-11T18:52:51;58.92;;;38.35;;
52031;SDS011;38044;45.148;39.604;2022-08-11T18:55:36;61.30;;;36.78;;
52031;SDS011;38044;45.148;39.604;2022-08-11T18:58:26;57.35;;;37.22;;
52031;SDS011;38044;45.148;39.604;2022-08-11T19:01:13;58.85;;;37.88;;
52031;SDS011;38044;45.148;39.604;2022-08-11T19:04:00;61.75;;;38.08;;
52031;SDS011;38044;45.148;39.604;2022-08-11T19:06:49;59.85;;;37.83;;
52031;SDS011;38044;45.148;39.604;2022-08-11T19:09:37;54.60;;;36.30;;